sensor_id;sensor_type;location;lat;lon;timestamp;P1;durP1;ratioP1;P2;durP2;ratioP2
5199;SDS011;2619;47.868;11.892;2024-03-07T00:01:23;11.10;;;7.17;;
5199;SDS011;2619;47.868;11.892;2024-03-07T00:03:51;11.80;;;7.93;;
5199;SDS011;2619;47.868;11.892;2024-03-07T00:06:17;14.30;;;7.80;;
5199;SDS011;2619;47.868;11.892;2024-03-07T00:08:42;12.90;;;7.40;;
5199;SDS011;2619;47.868;11.892;2024-03-07T00:11:08;11.70;;;8.00;;
5199;SDS011;2619;47.868;11.892;2024-03-07T00:13:34;11.73;;;7.20;;
5199;SDS011;2619;47.868;11.892;2024-03-07T00:16:00;10.20;;;6.30;;
5199;SDS011;2619;47.868;11.892;2024-03-07T00:20:54;11.67;;;7.07;;
5199;SDS011;2619;47.868;11.892;2024-03-07T00:23:20;11.73;;;8.00;;
5199;SDS011;2619;47.868;11.892;2024-03-07T00:25:46;11.13;;;6.93;;
5199;SDS011;2619;47.868;11.892;2024-03-07T00:28:15;11.47;;;7.47;;
5199;SDS011;2619;47.868;11.892;2024-03-07T00:30:42;11.20;;;6.93;;
5199;SDS011;2619;47.868;11.892;2024-03-07T00:33:10;14.00;;;7.70;;
5199;SDS011;2619;47.868;11.892;2024-03-07T00:35:36;12.27;;;7.70;;
5199;SDS011;2619;47.868;11.892;2024-03-07T00:38:02;15.30;;;9.20;;
5199;SDS011;2619;47.868;11.892;2024-03-07T00:40:27;16.10;;;10.00;;
5199;SDS011;2619;47.868;11.892;2024-03-07T00:42:53;15.40;;;9.80;;
5199;SDS011;2619;47.868;11.892;2024-03-07T00:45:19;14.33;;;8.43;;
5199;SDS011;2619;47.868;11.892;2024-03-07T00:47:44;16.10;;;9.50;;
5199;SDS011;2619;47.868;11.892;2024-03-07T00:50:10;17.60;;;10.13;;
5199;SDS011;2619;47.868;11.892;2024-03-07T00:52:36;15.77;;;9.60;;
5199;SDS011;2619;47.868;11.892;2024-03-07T00:55:02;16.50;;;9.37;;
5199;SDS011;2619;47.868;11.892;2024-03-07T00:57:27;16.30;;;10.27;;
5199;SDS011;2619;47.868;11.892;2024-03-07T00:59:54;16.87;;;10.27;;
5199;SDS011;2619;47.868;11.892;2024-03-07T01:02:20;16.40;;;10.67;;
5199;SDS011;2619;47.868;11.892;2024-03-07T01:04:45;15.90;;;9.90;;
5199;SDS011;2619;47.868;11.892;2024-03-07T01:07:11;17.10;;;10.37;;
5199;SDS011;2619;47.868;11.892;2024-03-07T01:09:37;14.80;;;9.37;;
5199;SDS011;2619;47.868;11.892;2024-03-07T01:12:02;14.40;;;9.03;;
5199;SDS011;2619;47.868;11.892;2024-03-07T01:14:29;13.90;;;8.80;;
5199;SDS011;2619;47.868;11.892;2024-03-07T01:16:56;14.03;;;9.30;;
5199;SDS011;2619;47.868;11.892;2024-03-07T01:19:21;15.00;;;10.13;;
5199;SDS011;2619;47.868;11.892;2024-03-07T01:21:47;15.53;;;10.10;;
5199;SDS011;2619;47.868;11.892;2024-03-07T01:24:13;16.63;;;11.07;;
5199;SDS011;2619;47.868;11.892;2024-03-07T01:26:42;17.33;;;10.10;;
5199;SDS011;2619;47.868;11.892;2024-03-07T01:29:08;17.13;;;10.30;;
5199;SDS011;2619;47.868;11.892;2024-03-07T01:31:34;15.33;;;9.83;;
5199;SDS011;2619;47.868;11.892;2024-03-07T01:34:00;18.40;;;10.90;;
5199;SDS011;2619;47.868;11.892;2024-03-07T01:36:25;15.27;;;9.40;;
5199;SDS011;2619;47.868;11.892;2024-03-07T01:38:51;17.83;;;10.60;;
5199;SDS011;2619;47.868;11.892;2024-03-07T01:41:17;18.43;;;10.20;;
5199;SDS011;2619;47.868;11.892;2024-03-07T01:43:43;18.70;;;11.80;;
5199;SDS011;2619;47.868;11.892;2024-03-07T01:46:09;18.47;;;10.83;;
5199;SDS011;2619;47.868;11.892;2024-03-07T01:48:35;20.27;;;11.80;;
5199;SDS011;2619;47.868;11.892;2024-03-07T01:51:01;17.60;;;11.17;;
5199;SDS011;2619;47.868;11.892;2024-03-07T01:53:28;14.27;;;9.60;;
5199;SDS011;2619;47.868;11.892;2024-03-07T01:55:56;17.37;;;11.00;;
5199;SDS011;2619;47.868;11.892;2024-03-07T01:58:22;16.90;;;10.30;;
5199;SDS011;2619;47.868;11.892;2024-03-07T02:00:49;18.67;;;10.63;;
5199;SDS011;2619;47.868;11.892;2024-03-07T02:03:15;18.87;;;11.40;;
5199;SDS011;2619;47.868;11.892;2024-03-07T02:05:41;17.97;;;11.00;;
5199;SDS011;2619;47.868;11.892;2024-03-07T02:08:06;19.20;;;12.23;;
5199;SDS011;2619;47.868;11.892;2024-03-07T02:10:32;19.20;;;11.43;;
5199;SDS011;2619;47.868;11.892;2024-03-07T02:12:58;20.07;;;11.37;;
5199;SDS011;2619;47.868;11.892;2024-03-07T02:15:27;17.07;;;10.53;;
5199;SDS011;2619;47.868;11.892;2024-03-07T02:17:52;20.33;;;11.83;;
5199;SDS011;2619;47.868;11.892;2024-03-07T02:20:18;15.33;;;10.70;;
5199;SDS011;2619;47.868;11.892;2024-03-07T02:22:44;16.87;;;10.17;;
5199;SDS011;2619;47.868;11.892;2024-03-07T02:25:09;19.00;;;11.50;;
5199;SDS011;2619;47.868;11.892;2024-03-07T02:27:35;26.33;;;10.03;;
5199;SDS011;2619;47.868;11.892;2024-03-07T02:30:01;17.77;;;11.10;;
5199;SDS011;2619;47.868;11.892;2024-03-07T02:32:30;15.00;;;9.70;;
5199;SDS011;2619;47.868;11.892;2024-03-07T02:34:56;15.77;;;8.93;;
5199;SDS011;2619;47.868;11.892;2024-03-07T02:37:22;14.70;;;9.50;;
5199;SDS011;2619;47.868;11.892;2024-03-07T02:39:47;16.07;;;9.13;;
5199;SDS011;2619;47.868;11.892;2024-03-07T02:42:13;16.23;;;10.27;;
5199;SDS011;2619;47.868;11.892;2024-03-07T02:44:38;15.10;;;9.17;;
5199;SDS011;2619;47.868;11.892;2024-03-07T02:47:05;15.90;;;8.70;;
5199;SDS011;2619;47.868;11.892;2024-03-07T02:49:31;15.80;;;10.00;;
5199;SDS011;2619;47.868;11.892;2024-03-07T02:51:57;16.67;;;9.67;;
5199;SDS011;2619;47.868;11.892;2024-03-07T02:54:22;15.73;;;9.70;;
5199;SDS011;2619;47.868;11.892;2024-03-07T02:56:48;17.10;;;10.67;;
5199;SDS011;2619;47.868;11.892;2024-03-07T02:59:13;15.80;;;9.30;;
5199;SDS011;2619;47.868;11.892;2024-03-07T03:01:39;13.00;;;8.90;;
5199;SDS011;2619;47.868;11.892;2024-03-07T03:04:04;15.60;;;9.90;;
5199;SDS011;2619;47.868;11.892;2024-03-07T03:06:30;16.47;;;10.27;;
5199;SDS011;2619;47.868;11.892;2024-03-07T03:08:56;19.20;;;9.80;;
5199;SDS011;2619;47.868;11.892;2024-03-07T03:11:22;21.13;;;12.33;;
5199;SDS011;2619;47.868;11.892;2024-03-07T03:13:47;17.70;;;10.50;;
5199;SDS011;2619;47.868;11.892;2024-03-07T03:16:13;17.73;;;11.30;;
5199;SDS011;2619;47.868;11.892;2024-03-07T03:18:39;19.57;;;11.77;;
5199;SDS011;2619;47.868;11.892;2024-03-07T03:21:05;20.67;;;11.97;;
5199;SDS011;2619;47.868;11.892;2024-03-07T03:23:30;18.67;;;10.90;;
5199;SDS011;2619;47.868;11.892;2024-03-07T03:25:56;18.70;;;11.00;;
5199;SDS011;2619;47.868;11.892;2024-03-07T03:28:22;17.67;;;11.07;;
5199;SDS011;2619;47.868;11.892;2024-03-07T03:30:48;20.47;;;11.00;;
5199;SDS011;2619;47.868;11.892;2024-03-07T03:33:15;19.60;;;10.07;;
5199;SDS011;2619;47.868;11.892;2024-03-07T03:35:41;18.20;;;10.17;;
5199;SDS011;2619;47.868;11.892;2024-03-07T03:38:07;16.90;;;10.40;;
5199;SDS011;2619;47.868;11.892;2024-03-07T03:40:33;16.20;;;9.40;;
5199;SDS011;2619;47.868;11.892;2024-03-07T03:42:59;16.30;;;10.37;;
5199;SDS011;2619;47.868;11.892;2024-03-07T03:45:25;16.90;;;11.13;;
5199;SDS011;2619;47.868;11.892;2024-03-07T03:47:51;22.67;;;12.03;;
5199;SDS011;2619;47.868;11.892;2024-03-07T03:50:17;18.63;;;11.80;;
5199;SDS011;2619;47.868;11.892;2024-03-07T03:52:43;21.03;;;11.20;;
5199;SDS011;2619;47.868;11.892;2024-03-07T03:55:09;20.47;;;12.20;;
5199;SDS011;2619;47.868;11.892;2024-03-07T03:57:35;22.47;;;12.23;;
5199;SDS011;2619;47.868;11.892;2024-03-07T04:00:02;22.87;;;13.00;;
5199;SDS011;2619;47.868;11.892;2024-03-07T04:02:34;18.80;;;12.20;;
5199;SDS011;2619;47.868;11.892;2024-03-07T04:05:02;20.27;;;12.00;;
5199;SDS011;2619;47.868;11.892;2024-03-07T04:07:28;17.17;;;11.17;;
5199;SDS011;2619;47.868;11.892;2024-03-07T04:09:56;17.67;;;11.60;;
5199;SDS011;2619;47.868;11.892;2024-03-07T04:12:23;18.60;;;11.47;;
5199;SDS011;2619;47.868;11.892;2024-03-07T04:14:50;17.90;;;11.27;;
5199;SDS011;2619;47.868;11.892;2024-03-07T04:17:16;19.13;;;11.77;;
5199;SDS011;2619;47.868;11.892;2024-03-07T04:19:42;19.87;;;12.13;;
5199;SDS011;2619;47.868;11.892;2024-03-07T04:22:08;21.20;;;12.60;;
5199;SDS011;2619;47.868;11.892;2024-03-07T04:24:34;20.63;;;12.23;;
5199;SDS011;2619;47.868;11.892;2024-03-07T04:27:01;20.30;;;12.60;;
5199;SDS011;2619;47.868;11.892;2024-03-07T04:29:29;18.60;;;12.70;;
5199;SDS011;2619;47.868;11.892;2024-03-07T04:31:58;18.37;;;11.10;;
5199;SDS011;2619;47.868;11.892;2024-03-07T04:34:28;20.80;;;12.77;;
5199;SDS011;2619;47.868;11.892;2024-03-07T04:36:58;21.83;;;14.20;;
5199;SDS011;2619;47.868;11.892;2024-03-07T04:39:25;17.87;;;11.23;;
5199;SDS011;2619;47.868;11.892;2024-03-07T04:42:00;20.27;;;11.00;;
5199;SDS011;2619;47.868;11.892;2024-03-07T04:44:31;17.90;;;9.73;;
5199;SDS011;2619;47.868;11.892;2024-03-07T04:47:01;17.90;;;11.43;;
5199;SDS011;2619;47.868;11.892;2024-03-07T04:49:28;14.93;;;8.57;;
5199;SDS011;2619;47.868;11.892;2024-03-07T04:51:55;13.97;;;9.57;;
5199;SDS011;2619;47.868;11.892;2024-03-07T04:54:26;16.30;;;9.67;;
5199;SDS011;2619;47.868;11.892;2024-03-07T04:56:53;16.60;;;10.23;;
5199;SDS011;2619;47.868;11.892;2024-03-07T04:59:19;15.87;;;9.90;;
5199;SDS011;2619;47.868;11.892;2024-03-07T05:01:46;18.03;;;10.73;;
5199;SDS011;2619;47.868;11.892;2024-03-07T05:04:13;20.67;;;10.87;;
5199;SDS011;2619;47.868;11.892;2024-03-07T05:06:39;20.07;;;11.17;;
5199;SDS011;2619;47.868;11.892;2024-03-07T05:09:05;22.13;;;11.40;;
5199;SDS011;2619;47.868;11.892;2024-03-07T05:11:33;18.97;;;10.13;;
5199;SDS011;2619;47.868;11.892;2024-03-07T05:13:59;18.53;;;9.57;;
5199;SDS011;2619;47.868;11.892;2024-03-07T05:16:26;26.60;;;10.80;;
5199;SDS011;2619;47.868;11.892;2024-03-07T05:18:52;25.20;;;11.70;;
5199;SDS011;2619;47.868;11.892;2024-03-07T05:21:18;25.03;;;11.70;;
5199;SDS011;2619;47.868;11.892;2024-03-07T05:24:04;21.20;;;11.57;;
5199;SDS011;2619;47.868;11.892;2024-03-07T05:26:30;24.40;;;11.97;;
5199;SDS011;2619;47.868;11.892;2024-03-07T05:29:02;18.87;;;11.53;;
5199;SDS011;2619;47.868;11.892;2024-03-07T05:31:31;31.53;;;14.80;;
5199;SDS011;2619;47.868;11.892;2024-03-07T05:34:03;33.03;;;13.30;;
5199;SDS011;2619;47.868;11.892;2024-03-07T05:36:34;24.63;;;11.67;;
5199;SDS011;2619;47.868;11.892;2024-03-07T05:39:01;24.43;;;10.97;;
5199;SDS011;2619;47.868;11.892;2024-03-07T05:41:34;22.23;;;12.10;;
5199;SDS011;2619;47.868;11.892;2024-03-07T05:44:00;25.83;;;12.90;;
5199;SDS011;2619;47.868;11.892;2024-03-07T05:46:25;22.97;;;11.40;;
5199;SDS011;2619;47.868;11.892;2024-03-07T05:48:51;25.33;;;12.23;;
5199;SDS011;2619;47.868;11.892;2024-03-07T05:51:21;27.53;;;13.93;;
5199;SDS011;2619;47.868;11.892;2024-03-07T05:53:49;24.57;;;12.23;;
5199;SDS011;2619;47.868;11.892;2024-03-07T05:56:16;28.63;;;11.90;;
5199;SDS011;2619;47.868;11.892;2024-03-07T05:58:42;29.03;;;12.37;;
5199;SDS011;2619;47.868;11.892;2024-03-07T06:01:07;20.63;;;11.50;;
5199;SDS011;2619;47.868;11.892;2024-03-07T06:03:36;32.20;;;12.60;;
5199;SDS011;2619;47.868;11.892;2024-03-07T06:06:02;27.47;;;12.50;;
5199;SDS011;2619;47.868;11.892;2024-03-07T06:08:29;24.17;;;12.17;;
5199;SDS011;2619;47.868;11.892;2024-03-07T06:10:55;26.30;;;12.83;;
5199;SDS011;2619;47.868;11.892;2024-03-07T06:13:21;26.03;;;12.20;;
5199;SDS011;2619;47.868;11.892;2024-03-07T06:15:46;29.97;;;12.07;;
5199;SDS011;2619;47.868;11.892;2024-03-07T06:18:12;33.17;;;14.50;;
5199;SDS011;2619;47.868;11.892;2024-03-07T06:20:39;33.07;;;14.77;;
5199;SDS011;2619;47.868;11.892;2024-03-07T06:23:06;41.40;;;18.20;;
5199;SDS011;2619;47.868;11.892;2024-03-07T06:25:32;48.17;;;20.87;;
5199;SDS011;2619;47.868;11.892;2024-03-07T06:28:16;41.50;;;18.43;;
5199;SDS011;2619;47.868;11.892;2024-03-07T06:30:43;46.00;;;20.50;;
5199;SDS011;2619;47.868;11.892;2024-03-07T06:33:13;40.70;;;17.80;;
5199;SDS011;2619;47.868;11.892;2024-03-07T06:35:39;46.03;;;16.37;;
5199;SDS011;2619;47.868;11.892;2024-03-07T06:38:06;37.80;;;16.30;;
5199;SDS011;2619;47.868;11.892;2024-03-07T06:40:38;46.43;;;18.53;;
5199;SDS011;2619;47.868;11.892;2024-03-07T06:43:08;42.03;;;19.50;;
5199;SDS011;2619;47.868;11.892;2024-03-07T06:45:37;34.80;;;16.27;;
5199;SDS011;2619;47.868;11.892;2024-03-07T06:48:06;52.07;;;18.53;;
5199;SDS011;2619;47.868;11.892;2024-03-07T06:50:33;39.17;;;16.90;;
5199;SDS011;2619;47.868;11.892;2024-03-07T06:52:59;38.07;;;16.63;;
5199;SDS011;2619;47.868;11.892;2024-03-07T06:55:24;35.63;;;15.20;;
5199;SDS011;2619;47.868;11.892;2024-03-07T06:57:50;36.90;;;14.83;;
5199;SDS011;2619;47.868;11.892;2024-03-07T07:00:15;35.07;;;14.27;;
5199;SDS011;2619;47.868;11.892;2024-03-07T07:02:45;34.30;;;14.20;;
5199;SDS011;2619;47.868;11.892;2024-03-07T07:05:11;35.40;;;14.47;;
5199;SDS011;2619;47.868;11.892;2024-03-07T07:07:40;32.90;;;15.77;;
5199;SDS011;2619;47.868;11.892;2024-03-07T07:10:09;29.60;;;12.70;;
5199;SDS011;2619;47.868;11.892;2024-03-07T07:12:45;29.30;;;14.50;;
5199;SDS011;2619;47.868;11.892;2024-03-07T07:15:13;37.10;;;15.10;;
5199;SDS011;2619;47.868;11.892;2024-03-07T07:17:43;38.70;;;17.20;;
5199;SDS011;2619;47.868;11.892;2024-03-07T07:20:14;47.93;;;21.57;;
5199;SDS011;2619;47.868;11.892;2024-03-07T07:22:41;50.47;;;20.60;;
5199;SDS011;2619;47.868;11.892;2024-03-07T07:25:08;39.57;;;20.00;;
5199;SDS011;2619;47.868;11.892;2024-03-07T07:27:41;36.53;;;18.33;;
5199;SDS011;2619;47.868;11.892;2024-03-07T07:30:11;28.63;;;12.80;;
5199;SDS011;2619;47.868;11.892;2024-03-07T07:32:38;24.90;;;12.93;;
5199;SDS011;2619;47.868;11.892;2024-03-07T07:35:05;17.67;;;10.20;;
5199;SDS011;2619;47.868;11.892;2024-03-07T07:37:36;15.33;;;8.93;;
5199;SDS011;2619;47.868;11.892;2024-03-07T07:40:09;18.23;;;9.63;;
5199;SDS011;2619;47.868;11.892;2024-03-07T07:42:39;14.47;;;7.80;;
5199;SDS011;2619;47.868;11.892;2024-03-07T07:45:08;15.57;;;8.30;;
5199;SDS011;2619;47.868;11.892;2024-03-07T07:47:41;14.57;;;7.47;;
5199;SDS011;2619;47.868;11.892;2024-03-07T07:50:08;19.37;;;8.70;;
5199;SDS011;2619;47.868;11.892;2024-03-07T07:52:42;14.97;;;8.83;;
5199;SDS011;2619;47.868;11.892;2024-03-07T07:55:13;14.43;;;8.37;;
5199;SDS011;2619;47.868;11.892;2024-03-07T07:57:46;15.07;;;8.70;;
5199;SDS011;2619;47.868;11.892;2024-03-07T08:00:13;16.33;;;9.13;;
5199;SDS011;2619;47.868;11.892;2024-03-07T08:02:55;19.17;;;9.60;;
5199;SDS011;2619;47.868;11.892;2024-03-07T08:05:23;17.03;;;8.30;;
5199;SDS011;2619;47.868;11.892;2024-03-07T08:07:50;15.50;;;8.97;;
5199;SDS011;2619;47.868;11.892;2024-03-07T08:10:17;14.63;;;7.97;;
5199;SDS011;2619;47.868;11.892;2024-03-07T08:12:44;11.93;;;7.57;;
5199;SDS011;2619;47.868;11.892;2024-03-07T08:15:11;14.07;;;8.53;;
5199;SDS011;2619;47.868;11.892;2024-03-07T08:17:39;26.07;;;18.87;;
5199;SDS011;2619;47.868;11.892;2024-03-07T08:20:05;19.13;;;10.67;;
5199;SDS011;2619;47.868;11.892;2024-03-07T08:22:36;16.40;;;9.73;;
5199;SDS011;2619;47.868;11.892;2024-03-07T08:25:03;11.73;;;8.00;;
5199;SDS011;2619;47.868;11.892;2024-03-07T08:27:34;14.27;;;8.97;;
5199;SDS011;2619;47.868;11.892;2024-03-07T08:30:04;11.17;;;7.87;;
5199;SDS011;2619;47.868;11.892;2024-03-07T08:32:38;11.50;;;7.37;;
5199;SDS011;2619;47.868;11.892;2024-03-07T08:35:07;15.00;;;9.57;;
5199;SDS011;2619;47.868;11.892;2024-03-07T08:37:38;35.43;;;20.43;;
5199;SDS011;2619;47.868;11.892;2024-03-07T08:40:04;16.60;;;10.03;;
5199;SDS011;2619;47.868;11.892;2024-03-07T08:42:34;12.10;;;7.47;;
5199;SDS011;2619;47.868;11.892;2024-03-07T08:45:04;14.43;;;8.00;;
5199;SDS011;2619;47.868;11.892;2024-03-07T08:47:34;11.93;;;7.70;;
5199;SDS011;2619;47.868;11.892;2024-03-07T08:50:00;12.53;;;8.00;;
5199;SDS011;2619;47.868;11.892;2024-03-07T08:52:27;14.07;;;8.97;;
5199;SDS011;2619;47.868;11.892;2024-03-07T08:54:53;10.33;;;8.10;;
5199;SDS011;2619;47.868;11.892;2024-03-07T08:57:19;11.90;;;8.43;;
5199;SDS011;2619;47.868;11.892;2024-03-07T08:59:47;12.27;;;8.20;;
5199;SDS011;2619;47.868;11.892;2024-03-07T09:02:13;15.47;;;9.97;;
5199;SDS011;2619;47.868;11.892;2024-03-07T09:04:39;18.90;;;10.90;;
5199;SDS011;2619;47.868;11.892;2024-03-07T09:07:06;14.17;;;9.30;;
5199;SDS011;2619;47.868;11.892;2024-03-07T09:09:32;17.13;;;11.13;;
5199;SDS011;2619;47.868;11.892;2024-03-07T09:11:58;15.10;;;10.40;;
5199;SDS011;2619;47.868;11.892;2024-03-07T09:14:26;13.97;;;9.73;;
5199;SDS011;2619;47.868;11.892;2024-03-07T09:16:52;14.80;;;9.83;;
5199;SDS011;2619;47.868;11.892;2024-03-07T09:19:18;14.50;;;10.20;;
5199;SDS011;2619;47.868;11.892;2024-03-07T09:21:45;15.97;;;9.70;;
5199;SDS011;2619;47.868;11.892;2024-03-07T09:24:11;19.33;;;11.10;;
5199;SDS011;2619;47.868;11.892;2024-03-07T09:26:37;18.47;;;10.97;;
5199;SDS011;2619;47.868;11.892;2024-03-07T09:29:03;17.03;;;11.63;;
5199;SDS011;2619;47.868;11.892;2024-03-07T09:31:31;19.37;;;12.57;;
5199;SDS011;2619;47.868;11.892;2024-03-07T09:33:57;20.73;;;12.27;;
5199;SDS011;2619;47.868;11.892;2024-03-07T09:36:23;20.03;;;12.53;;
5199;SDS011;2619;47.868;11.892;2024-03-07T09:38:49;20.63;;;12.97;;
5199;SDS011;2619;47.868;11.892;2024-03-07T09:41:15;19.80;;;11.83;;
5199;SDS011;2619;47.868;11.892;2024-03-07T09:43:43;22.10;;;13.97;;
5199;SDS011;2619;47.868;11.892;2024-03-07T09:46:11;29.60;;;16.30;;
5199;SDS011;2619;47.868;11.892;2024-03-07T09:48:37;22.07;;;13.77;;
5199;SDS011;2619;47.868;11.892;2024-03-07T09:51:04;21.97;;;14.60;;
5199;SDS011;2619;47.868;11.892;2024-03-07T09:53:32;19.23;;;13.13;;
5199;SDS011;2619;47.868;11.892;2024-03-07T09:55:59;18.00;;;12.17;;
5199;SDS011;2619;47.868;11.892;2024-03-07T09:58:25;22.20;;;13.83;;
5199;SDS011;2619;47.868;11.892;2024-03-07T10:00:54;20.40;;;13.63;;
5199;SDS011;2619;47.868;11.892;2024-03-07T10:03:21;28.50;;;17.77;;
5199;SDS011;2619;47.868;11.892;2024-03-07T10:05:52;22.03;;;14.67;;
5199;SDS011;2619;47.868;11.892;2024-03-07T10:08:18;22.50;;;13.87;;
5199;SDS011;2619;47.868;11.892;2024-03-07T10:10:44;27.70;;;16.40;;
5199;SDS011;2619;47.868;11.892;2024-03-07T10:13:12;26.03;;;14.90;;
5199;SDS011;2619;47.868;11.892;2024-03-07T10:15:38;29.30;;;17.03;;
5199;SDS011;2619;47.868;11.892;2024-03-07T10:18:07;26.63;;;15.70;;
5199;SDS011;2619;47.868;11.892;2024-03-07T10:20:35;33.83;;;20.50;;
5199;SDS011;2619;47.868;11.892;2024-03-07T10:23:02;29.10;;;18.37;;
5199;SDS011;2619;47.868;11.892;2024-03-07T10:25:28;33.37;;;21.27;;
5199;SDS011;2619;47.868;11.892;2024-03-07T10:27:54;36.33;;;20.77;;
5199;SDS011;2619;47.868;11.892;2024-03-07T10:30:20;34.07;;;20.87;;
5199;SDS011;2619;47.868;11.892;2024-03-07T10:32:54;34.47;;;20.30;;
5199;SDS011;2619;47.868;11.892;2024-03-07T10:35:21;31.93;;;19.30;;
5199;SDS011;2619;47.868;11.892;2024-03-07T10:37:54;29.00;;;18.37;;
5199;SDS011;2619;47.868;11.892;2024-03-07T10:40:20;27.00;;;19.00;;
5199;SDS011;2619;47.868;11.892;2024-03-07T10:42:47;33.03;;;20.17;;
5199;SDS011;2619;47.868;11.892;2024-03-07T10:45:19;29.00;;;17.90;;
5199;SDS011;2619;47.868;11.892;2024-03-07T10:47:54;24.67;;;16.43;;
5199;SDS011;2619;47.868;11.892;2024-03-07T10:53:03;29.47;;;18.80;;
5199;SDS011;2619;47.868;11.892;2024-03-07T10:58:47;28.10;;;17.70;;
5199;SDS011;2619;47.868;11.892;2024-03-07T11:01:35;28.67;;;16.60;;
5199;SDS011;2619;47.868;11.892;2024-03-07T11:04:07;25.93;;;16.47;;
5199;SDS011;2619;47.868;11.892;2024-03-07T11:06:33;28.47;;;16.20;;
5199;SDS011;2619;47.868;11.892;2024-03-07T11:09:03;24.27;;;15.30;;
5199;SDS011;2619;47.868;11.892;2024-03-07T11:11:36;23.23;;;16.40;;
5199;SDS011;2619;47.868;11.892;2024-03-07T11:14:09;24.57;;;16.97;;
5199;SDS011;2619;47.868;11.892;2024-03-07T11:16:36;27.80;;;16.70;;
5199;SDS011;2619;47.868;11.892;2024-03-07T11:22:04;24.83;;;16.37;;
5199;SDS011;2619;47.868;11.892;2024-03-07T11:24:42;23.20;;;15.50;;
5199;SDS011;2619;47.868;11.892;2024-03-07T11:27:09;25.33;;;16.63;;
5199;SDS011;2619;47.868;11.892;2024-03-07T11:32:08;24.83;;;16.57;;
5199;SDS011;2619;47.868;11.892;2024-03-07T11:34:40;26.67;;;16.53;;
5199;SDS011;2619;47.868;11.892;2024-03-07T11:37:08;23.43;;;16.80;;
5199;SDS011;2619;47.868;11.892;2024-03-07T11:39:45;25.13;;;16.30;;
5199;SDS011;2619;47.868;11.892;2024-03-07T11:42:28;28.97;;;17.27;;
5199;SDS011;2619;47.868;11.892;2024-03-07T11:44:56;23.47;;;14.70;;
5199;SDS011;2619;47.868;11.892;2024-03-07T11:47:26;23.20;;;16.00;;
5199;SDS011;2619;47.868;11.892;2024-03-07T11:50:00;24.57;;;14.60;;
5199;SDS011;2619;47.868;11.892;2024-03-07T11:52:27;25.97;;;16.20;;
5199;SDS011;2619;47.868;11.892;2024-03-07T11:54:53;24.37;;;15.53;;
5199;SDS011;2619;47.868;11.892;2024-03-07T11:57:22;24.73;;;15.97;;
5199;SDS011;2619;47.868;11.892;2024-03-07T11:59:57;23.97;;;15.30;;
5199;SDS011;2619;47.868;11.892;2024-03-07T12:02:26;25.40;;;16.47;;
5199;SDS011;2619;47.868;11.892;2024-03-07T12:04:52;22.43;;;16.00;;
5199;SDS011;2619;47.868;11.892;2024-03-07T12:07:18;24.63;;;16.37;;
5199;SDS011;2619;47.868;11.892;2024-03-07T12:09:47;23.27;;;17.10;;
5199;SDS011;2619;47.868;11.892;2024-03-07T12:12:19;24.53;;;15.97;;
5199;SDS011;2619;47.868;11.892;2024-03-07T12:14:50;22.10;;;15.23;;
5199;SDS011;2619;47.868;11.892;2024-03-07T12:17:19;23.90;;;15.20;;
5199;SDS011;2619;47.868;11.892;2024-03-07T12:19:48;25.67;;;16.03;;
5199;SDS011;2619;47.868;11.892;2024-03-07T12:22:20;24.50;;;15.50;;
5199;SDS011;2619;47.868;11.892;2024-03-07T12:25:02;21.43;;;14.50;;
5199;SDS011;2619;47.868;11.892;2024-03-07T12:27:28;29.20;;;16.50;;
5199;SDS011;2619;47.868;11.892;2024-03-07T12:29:55;25.80;;;16.40;;
5199;SDS011;2619;47.868;11.892;2024-03-07T12:32:20;25.93;;;15.70;;
5199;SDS011;2619;47.868;11.892;2024-03-07T12:34:46;25.40;;;16.73;;
5199;SDS011;2619;47.868;11.892;2024-03-07T12:37:12;24.07;;;16.00;;
5199;SDS011;2619;47.868;11.892;2024-03-07T12:39:44;25.20;;;16.77;;
5199;SDS011;2619;47.868;11.892;2024-03-07T12:42:17;27.90;;;16.73;;
5199;SDS011;2619;47.868;11.892;2024-03-07T12:44:43;22.10;;;15.40;;
5199;SDS011;2619;47.868;11.892;2024-03-07T12:47:16;25.83;;;16.20;;
5199;SDS011;2619;47.868;11.892;2024-03-07T12:49:42;25.73;;;17.07;;
5199;SDS011;2619;47.868;11.892;2024-03-07T12:52:08;24.90;;;16.10;;
5199;SDS011;2619;47.868;11.892;2024-03-07T12:54:37;25.03;;;16.90;;
5199;SDS011;2619;47.868;11.892;2024-03-07T12:57:06;24.00;;;15.97;;
5199;SDS011;2619;47.868;11.892;2024-03-07T12:59:34;22.70;;;15.53;;
5199;SDS011;2619;47.868;11.892;2024-03-07T13:02:02;21.53;;;14.83;;
5199;SDS011;2619;47.868;11.892;2024-03-07T13:04:28;25.73;;;16.20;;
5199;SDS011;2619;47.868;11.892;2024-03-07T13:06:55;25.47;;;15.53;;
5199;SDS011;2619;47.868;11.892;2024-03-07T13:09:24;23.90;;;17.20;;
5199;SDS011;2619;47.868;11.892;2024-03-07T13:11:52;24.00;;;15.87;;
5199;SDS011;2619;47.868;11.892;2024-03-07T13:14:18;26.00;;;18.03;;
5199;SDS011;2619;47.868;11.892;2024-03-07T13:16:44;22.63;;;15.90;;
5199;SDS011;2619;47.868;11.892;2024-03-07T13:19:10;25.10;;;15.87;;
5199;SDS011;2619;47.868;11.892;2024-03-07T13:21:37;23.07;;;15.30;;
5199;SDS011;2619;47.868;11.892;2024-03-07T13:24:04;23.67;;;16.60;;
5199;SDS011;2619;47.868;11.892;2024-03-07T13:26:30;24.47;;;17.97;;
5199;SDS011;2619;47.868;11.892;2024-03-07T13:28:56;33.40;;;22.70;;
5199;SDS011;2619;47.868;11.892;2024-03-07T13:31:26;24.10;;;16.97;;
5199;SDS011;2619;47.868;11.892;2024-03-07T13:33:55;25.13;;;15.80;;
5199;SDS011;2619;47.868;11.892;2024-03-07T13:36:20;26.00;;;16.40;;
5199;SDS011;2619;47.868;11.892;2024-03-07T13:38:50;25.53;;;15.93;;
5199;SDS011;2619;47.868;11.892;2024-03-07T13:41:21;24.37;;;16.60;;
5199;SDS011;2619;47.868;11.892;2024-03-07T13:43:47;26.93;;;17.27;;
5199;SDS011;2619;47.868;11.892;2024-03-07T13:46:14;26.10;;;17.97;;
5199;SDS011;2619;47.868;11.892;2024-03-07T13:48:42;24.37;;;15.13;;
5199;SDS011;2619;47.868;11.892;2024-03-07T13:51:08;34.00;;;20.30;;
5199;SDS011;2619;47.868;11.892;2024-03-07T13:53:35;26.10;;;17.33;;
5199;SDS011;2619;47.868;11.892;2024-03-07T14:10:03;32.87;;;20.03;;
5199;SDS011;2619;47.868;11.892;2024-03-07T14:12:58;27.20;;;18.40;;
5199;SDS011;2619;47.868;11.892;2024-03-07T14:18:44;34.70;;;21.77;;
5199;SDS011;2619;47.868;11.892;2024-03-07T14:21:48;34.33;;;21.17;;
5199;SDS011;2619;47.868;11.892;2024-03-07T14:27:12;36.00;;;22.00;;
5199;SDS011;2619;47.868;11.892;2024-03-07T14:32:39;32.23;;;20.30;;
5199;SDS011;2619;47.868;11.892;2024-03-07T14:40:46;44.00;;;23.07;;
5199;SDS011;2619;47.868;11.892;2024-03-07T14:43:14;37.20;;;22.70;;
5199;SDS011;2619;47.868;11.892;2024-03-07T14:45:41;39.53;;;24.20;;
5199;SDS011;2619;47.868;11.892;2024-03-07T14:48:08;37.73;;;24.47;;
5199;SDS011;2619;47.868;11.892;2024-03-07T14:50:40;40.10;;;25.80;;
5199;SDS011;2619;47.868;11.892;2024-03-07T14:53:07;48.10;;;28.90;;
5199;SDS011;2619;47.868;11.892;2024-03-07T14:55:33;41.03;;;26.13;;
5199;SDS011;2619;47.868;11.892;2024-03-07T14:58:00;42.47;;;27.57;;
5199;SDS011;2619;47.868;11.892;2024-03-07T15:00:26;45.27;;;28.10;;
5199;SDS011;2619;47.868;11.892;2024-03-07T15:02:53;46.00;;;28.40;;
5199;SDS011;2619;47.868;11.892;2024-03-07T15:05:23;43.00;;;27.70;;
5199;SDS011;2619;47.868;11.892;2024-03-07T15:07:52;48.80;;;29.03;;
5199;SDS011;2619;47.868;11.892;2024-03-07T15:10:19;48.43;;;28.33;;
5199;SDS011;2619;47.868;11.892;2024-03-07T15:12:51;51.03;;;32.30;;
5199;SDS011;2619;47.868;11.892;2024-03-07T15:15:17;41.67;;;27.73;;
5199;SDS011;2619;47.868;11.892;2024-03-07T15:17:44;46.80;;;28.73;;
5199;SDS011;2619;47.868;11.892;2024-03-07T15:20:13;47.60;;;30.83;;
5199;SDS011;2619;47.868;11.892;2024-03-07T15:22:49;47.10;;;28.30;;
5199;SDS011;2619;47.868;11.892;2024-03-07T15:25:21;50.60;;;30.83;;